sensor_id;sensor_type;location;lat;lon;timestamp;temperature;humidity
59162;DHT22;44942;48.936;8.260;2024-02-14T00:01:07;21.20;55.30
59162;DHT22;44942;48.936;8.260;2024-02-14T00:06:10;21.20;55.40
59162;DHT22;44942;48.936;8.260;2024-02-14T00:11:12;21.20;55.20
59162;DHT22;44942;48.936;8.260;2024-02-14T00:16:14;20.90;54.70
59162;DHT22;44942;48.936;8.260;2024-02-14T00:21:15;21.00;54.60
59162;DHT22;44942;48.936;8.260;2024-02-14T00:26:15;21.00;54.50
59162;DHT22;44942;48.936;8.260;2024-02-14T00:31:16;21.10;54.60
59162;DHT22;44942;48.936;8.260;2024-02-14T00:36:17;21.10;54.70
59162;DHT22;44942;48.936;8.260;2024-02-14T00:41:18;21.20;54.80
59162;DHT22;44942;48.936;8.260;2024-02-14T00:46:18;21.20;54.90
59162;DHT22;44942;48.936;8.260;2024-02-14T00:51:19;21.10;55.00
59162;DHT22;44942;48.936;8.260;2024-02-14T00:56:20;21.20;55.00
59162;DHT22;44942;48.936;8.260;2024-02-14T01:01:20;21.10;55.00
59162;DHT22;44942;48.936;8.260;2024-02-14T01:06:21;21.20;55.10
59162;DHT22;44942;48.936;8.260;2024-02-14T01:11:22;21.10;55.10
59162;DHT22;44942;48.936;8.260;2024-02-14T01:16:24;21.20;55.20
59162;DHT22;44942;48.936;8.260;2024-02-14T01:21:26;21.20;55.20
59162;DHT22;44942;48.936;8.260;2024-02-14T01:26:26;21.20;55.30
59162;DHT22;44942;48.936;8.260;2024-02-14T01:31:27;21.20;55.30
59162;DHT22;44942;48.936;8.260;2024-02-14T01:36:30;21.20;55.40
59162;DHT22;44942;48.936;8.260;2024-02-14T01:41:31;21.20;55.40
59162;DHT22;44942;48.936;8.260;2024-02-14T01:46:33;21.20;55.40
59162;DHT22;44942;48.936;8.260;2024-02-14T01:51:35;21.20;55.40
59162;DHT22;44942;48.936;8.260;2024-02-14T01:56:36;21.20;55.60
59162;DHT22;44942;48.936;8.260;2024-02-14T02:01:36;21.20;55.40
59162;DHT22;44942;48.936;8.260;2024-02-14T02:06:37;21.20;55.40
59162;DHT22;44942;48.936;8.260;2024-02-14T02:11:49;21.10;55.10
59162;DHT22;44942;48.936;8.260;2024-02-14T02:16:49;20.90;54.60
59162;DHT22;44942;48.936;8.260;2024-02-14T02:21:50;20.90;54.50
59162;DHT22;44942;48.936;8.260;2024-02-14T02:26:52;21.00;54.50
59162;DHT22;44942;48.936;8.260;2024-02-14T02:31:53;21.10;54.50
59162;DHT22;44942;48.936;8.260;2024-02-14T02:36:54;21.10;54.60
59162;DHT22;44942;48.936;8.260;2024-02-14T02:41:55;21.10;54.60
59162;DHT22;44942;48.936;8.260;2024-02-14T02:46:57;21.20;54.70
59162;DHT22;44942;48.936;8.260;2024-02-14T02:51:58;21.10;54.80
59162;DHT22;44942;48.936;8.260;2024-02-14T02:56:58;21.20;54.90
59162;DHT22;44942;48.936;8.260;2024-02-14T03:01:59;21.20;54.90
59162;DHT22;44942;48.936;8.260;2024-02-14T03:07:00;21.10;54.90
59162;DHT22;44942;48.936;8.260;2024-02-14T03:12:09;21.10;54.70
59162;DHT22;44942;48.936;8.260;2024-02-14T03:17:10;20.80;54.30
59162;DHT22;44942;48.936;8.260;2024-02-14T03:22:10;20.90;54.20
59162;DHT22;44942;48.936;8.260;2024-02-14T03:27:11;21.00;54.20
59162;DHT22;44942;48.936;8.260;2024-02-14T03:32:12;21.10;54.20
59162;DHT22;44942;48.936;8.260;2024-02-14T03:37:12;21.10;54.30
59162;DHT22;44942;48.936;8.260;2024-02-14T03:42:13;21.10;54.40
59162;DHT22;44942;48.936;8.260;2024-02-14T03:47:14;21.10;54.40
59162;DHT22;44942;48.936;8.260;2024-02-14T03:52:14;21.10;54.50
59162;DHT22;44942;48.936;8.260;2024-02-14T03:57:15;21.10;54.70
59162;DHT22;44942;48.936;8.260;2024-02-14T04:02:15;21.10;54.70
59162;DHT22;44942;48.936;8.260;2024-02-14T04:07:16;21.10;54.90
59162;DHT22;44942;48.936;8.260;2024-02-14T04:12:17;21.00;54.60
59162;DHT22;44942;48.936;8.260;2024-02-14T04:17:18;20.80;55.00
59162;DHT22;44942;48.936;8.260;2024-02-14T04:22:18;20.80;54.10
59162;DHT22;44942;48.936;8.260;2024-02-14T04:27:19;21.00;54.10
59162;DHT22;44942;48.936;8.260;2024-02-14T04:32:20;21.00;54.20
59162;DHT22;44942;48.936;8.260;2024-02-14T04:37:20;21.00;54.20
59162;DHT22;44942;48.936;8.260;2024-02-14T04:42:21;21.00;54.30
59162;DHT22;44942;48.936;8.260;2024-02-14T04:47:21;21.00;54.30
59162;DHT22;44942;48.936;8.260;2024-02-14T04:52:22;21.00;54.50
59162;DHT22;44942;48.936;8.260;2024-02-14T04:57:23;21.10;54.50
59162;DHT22;44942;48.936;8.260;2024-02-14T05:02:23;21.00;55.20
59162;DHT22;44942;48.936;8.260;2024-02-14T05:07:24;21.00;54.60
59162;DHT22;44942;48.936;8.260;2024-02-14T05:12:25;21.00;54.30
59162;DHT22;44942;48.936;8.260;2024-02-14T05:17:26;20.80;54.20
59162;DHT22;44942;48.936;8.260;2024-02-14T05:22:26;20.80;53.90
59162;DHT22;44942;48.936;8.260;2024-02-14T05:27:28;20.90;54.00
59162;DHT22;44942;48.936;8.260;2024-02-14T05:32:28;21.00;54.10
59162;DHT22;44942;48.936;8.260;2024-02-14T05:37:29;21.00;54.20
59162;DHT22;44942;48.936;8.260;2024-02-14T05:42:29;21.00;54.30
59162;DHT22;44942;48.936;8.260;2024-02-14T05:47:30;21.00;54.40
59162;DHT22;44942;48.936;8.260;2024-02-14T05:52:31;21.00;54.50
59162;DHT22;44942;48.936;8.260;2024-02-14T05:57:32;21.00;54.50
59162;DHT22;44942;48.936;8.260;2024-02-14T06:02:32;21.00;54.50
59162;DHT22;44942;48.936;8.260;2024-02-14T06:07:33;21.00;54.60
59162;DHT22;44942;48.936;8.260;2024-02-14T06:12:34;20.90;54.40
59162;DHT22;44942;48.936;8.260;2024-02-14T06:17:34;20.70;54.10
59162;DHT22;44942;48.936;8.260;2024-02-14T06:22:35;20.80;54.10
59162;DHT22;44942;48.936;8.260;2024-02-14T06:27:35;20.90;54.20
59162;DHT22;44942;48.936;8.260;2024-02-14T06:32:37;20.90;54.20
59162;DHT22;44942;48.936;8.260;2024-02-14T06:37:38;20.90;54.30
59162;DHT22;44942;48.936;8.260;2024-02-14T06:42:38;20.90;54.40
59162;DHT22;44942;48.936;8.260;2024-02-14T06:47:39;21.00;54.60
59162;DHT22;44942;48.936;8.260;2024-02-14T06:52:39;21.00;54.70
59162;DHT22;44942;48.936;8.260;2024-02-14T06:57:40;21.00;54.70
59162;DHT22;44942;48.936;8.260;2024-02-14T07:02:40;21.00;54.80
59162;DHT22;44942;48.936;8.260;2024-02-14T07:07:41;21.10;54.90
59162;DHT22;44942;48.936;8.260;2024-02-14T07:12:42;21.10;54.80
59162;DHT22;44942;48.936;8.260;2024-02-14T07:17:42;21.10;54.80
59162;DHT22;44942;48.936;8.260;2024-02-14T07:22:43;21.00;55.50
59162;DHT22;44942;48.936;8.260;2024-02-14T07:27:46;21.10;54.80
59162;DHT22;44942;48.936;8.260;2024-02-14T07:32:49;21.00;54.70
59162;DHT22;44942;48.936;8.260;2024-02-14T07:37:51;21.00;54.80
59162;DHT22;44942;48.936;8.260;2024-02-14T07:42:52;21.00;54.80
59162;DHT22;44942;48.936;8.260;2024-02-14T07:47:52;21.00;54.90
59162;DHT22;44942;48.936;8.260;2024-02-14T07:52:53;21.00;54.90
59162;DHT22;44942;48.936;8.260;2024-02-14T07:57:54;21.00;55.60
59162;DHT22;44942;48.936;8.260;2024-02-14T08:02:55;21.00;54.90
59162;DHT22;44942;48.936;8.260;2024-02-14T08:07:55;21.00;54.90
59162;DHT22;44942;48.936;8.260;2024-02-14T08:12:56;21.00;54.90
59162;DHT22;44942;48.936;8.260;2024-02-14T08:17:56;20.90;54.80
59162;DHT22;44942;48.936;8.260;2024-02-14T08:22:57;21.00;54.90
59162;DHT22;44942;48.936;8.260;2024-02-14T08:27:57;21.00;54.90
59162;DHT22;44942;48.936;8.260;2024-02-14T08:32:58;20.90;54.80
59162;DHT22;44942;48.936;8.260;2024-02-14T08:37:58;20.90;54.80
59162;DHT22;44942;48.936;8.260;2024-02-14T08:42:59;20.90;54.70
59162;DHT22;44942;48.936;8.260;2024-02-14T08:48:00;20.90;54.70
59162;DHT22;44942;48.936;8.260;2024-02-14T08:53:00;20.90;54.70
59162;DHT22;44942;48.936;8.260;2024-02-14T08:58:01;20.90;54.70
59162;DHT22;44942;48.936;8.260;2024-02-14T09:03:03;20.90;54.70
59162;DHT22;44942;48.936;8.260;2024-02-14T09:08:04;20.90;54.70
59162;DHT22;44942;48.936;8.260;2024-02-14T09:13:05;20.90;54.70
59162;DHT22;44942;48.936;8.260;2024-02-14T09:18:07;20.90;54.70
59162;DHT22;44942;48.936;8.260;2024-02-14T09:23:08;20.80;54.60
59162;DHT22;44942;48.936;8.260;2024-02-14T09:28:09;20.90;54.70
59162;DHT22;44942;48.936;8.260;2024-02-14T09:33:10;20.90;54.70
59162;DHT22;44942;48.936;8.260;2024-02-14T09:38:11;20.80;54.60
59162;DHT22;44942;48.936;8.260;2024-02-14T09:48:23;20.80;54.70
59162;DHT22;44942;48.936;8.260;2024-02-14T09:53:26;20.80;55.40
59162;DHT22;44942;48.936;8.260;2024-02-14T09:58:31;20.80;54.60
59162;DHT22;44942;48.936;8.260;2024-02-14T10:03:32;20.80;54.60
59162;DHT22;44942;48.936;8.260;2024-02-14T10:08:33;20.80;54.60
59162;DHT22;44942;48.936;8.260;2024-02-14T10:13:33;20.80;54.60
59162;DHT22;44942;48.936;8.260;2024-02-14T10:18:34;20.80;54.60
59162;DHT22;44942;48.936;8.260;2024-02-14T10:23:35;20.80;54.60
59162;DHT22;44942;48.936;8.260;2024-02-14T10:28:35;20.80;54.70
59162;DHT22;44942;48.936;8.260;2024-02-14T10:33:36;20.80;55.10
59162;DHT22;44942;48.936;8.260;2024-02-14T10:38:37;20.80;54.70
59162;DHT22;44942;48.936;8.260;2024-02-14T10:43:43;20.80;54.70
59162;DHT22;44942;48.936;8.260;2024-02-14T10:48:45;20.80;54.70
59162;DHT22;44942;48.936;8.260;2024-02-14T10:53:46;20.70;54.70
59162;DHT22;44942;48.936;8.260;2024-02-14T10:58:51;20.70;54.80
59162;DHT22;44942;48.936;8.260;2024-02-14T11:03:54;20.70;54.90
59162;DHT22;44942;48.936;8.260;2024-02-14T11:09:01;20.70;54.90
59162;DHT22;44942;48.936;8.260;2024-02-14T11:14:02;20.70;54.90
59162;DHT22;44942;48.936;8.260;2024-02-14T11:19:12;20.70;54.90
59162;DHT22;44942;48.936;8.260;2024-02-14T11:24:14;20.70;54.90
59162;DHT22;44942;48.936;8.260;2024-02-14T11:29:18;20.70;54.90
59162;DHT22;44942;48.936;8.260;2024-02-14T11:34:19;20.70;54.90
59162;DHT22;44942;48.936;8.260;2024-02-14T11:39:22;20.60;54.90
59162;DHT22;44942;48.936;8.260;2024-02-14T11:44:23;20.60;54.90
59162;DHT22;44942;48.936;8.260;2024-02-14T11:49:23;20.60;55.00
59162;DHT22;44942;48.936;8.260;2024-02-14T11:54:24;20.70;55.00
59162;DHT22;44942;48.936;8.260;2024-02-14T11:59:25;20.60;54.90
59162;DHT22;44942;48.936;8.260;2024-02-14T12:04:26;20.70;55.00
59162;DHT22;44942;48.936;8.260;2024-02-14T12:09:27;20.70;55.00
59162;DHT22;44942;48.936;8.260;2024-02-14T12:14:27;20.60;54.90
59162;DHT22;44942;48.936;8.260;2024-02-14T12:19:30;20.60;54.90
59162;DHT22;44942;48.936;8.260;2024-02-14T12:24:30;20.60;55.00
59162;DHT22;44942;48.936;8.260;2024-02-14T12:29:35;20.60;55.00
59162;DHT22;44942;48.936;8.260;2024-02-14T12:34:37;20.60;55.10
59162;DHT22;44942;48.936;8.260;2024-02-14T12:39:38;20.60;55.00
59162;DHT22;44942;48.936;8.260;2024-02-14T12:44:38;20.60;55.10
59162;DHT22;44942;48.936;8.260;2024-02-14T12:49:39;20.60;55.20
59162;DHT22;44942;48.936;8.260;2024-02-14T12:54:40;20.60;55.10
59162;DHT22;44942;48.936;8.260;2024-02-14T12:59:40;20.60;55.20
59162;DHT22;44942;48.936;8.260;2024-02-14T13:04:41;20.60;55.10
59162;DHT22;44942;48.936;8.260;2024-02-14T13:09:42;20.60;55.20
59162;DHT22;44942;48.936;8.260;2024-02-14T13:14:44;20.60;55.10
59162;DHT22;44942;48.936;8.260;2024-02-14T13:19:45;20.60;55.10
59162;DHT22;44942;48.936;8.260;2024-02-14T13:24:46;20.50;55.10
59162;DHT22;44942;48.936;8.260;2024-02-14T13:29:47;20.50;55.10
59162;DHT22;44942;48.936;8.260;2024-02-14T13:34:47;20.50;55.20
59162;DHT22;44942;48.936;8.260;2024-02-14T13:39:48;20.50;55.20
59162;DHT22;44942;48.936;8.260;2024-02-14T13:44:49;20.50;55.20
59162;DHT22;44942;48.936;8.260;2024-02-14T13:49:49;20.50;55.20
59162;DHT22;44942;48.936;8.260;2024-02-14T13:54:50;20.50;55.80
59162;DHT22;44942;48.936;8.260;2024-02-14T13:59:50;20.50;55.20
59162;DHT22;44942;48.936;8.260;2024-02-14T14:04:51;20.50;55.20
59162;DHT22;44942;48.936;8.260;2024-02-14T14:09:53;20.50;55.20
59162;DHT22;44942;48.936;8.260;2024-02-14T14:14:54;20.60;55.20
59162;DHT22;44942;48.936;8.260;2024-02-14T14:19:54;20.50;55.20
59162;DHT22;44942;48.936;8.260;2024-02-14T14:24:55;20.50;55.20
59162;DHT22;44942;48.936;8.260;2024-02-14T14:29:55;20.50;55.30
59162;DHT22;44942;48.936;8.260;2024-02-14T14:34:56;20.50;55.20
59162;DHT22;44942;48.936;8.260;2024-02-14T14:39:57;20.50;55.20
59162;DHT22;44942;48.936;8.260;2024-02-14T14:44:57;20.50;55.20
59162;DHT22;44942;48.936;8.260;2024-02-14T14:49:58;20.50;55.20
59162;DHT22;44942;48.936;8.260;2024-02-14T14:54:59;20.50;55.20
59162;DHT22;44942;48.936;8.260;2024-02-14T15:00:00;20.50;55.20
59162;DHT22;44942;48.936;8.260;2024-02-14T15:05:00;20.50;55.30
59162;DHT22;44942;48.936;8.260;2024-02-14T15:10:01;20.50;55.30
59162;DHT22;44942;48.936;8.260;2024-02-14T15:15:03;20.50;55.30
59162;DHT22;44942;48.936;8.260;2024-02-14T15:20:04;20.50;55.30
59162;DHT22;44942;48.936;8.260;2024-02-14T15:25:05;20.50;55.30
59162;DHT22;44942;48.936;8.260;2024-02-14T15:30:07;20.40;55.30
59162;DHT22;44942;48.936;8.260;2024-02-14T15:35:26;20.50;55.40
59162;DHT22;44942;48.936;8.260;2024-02-14T15:40:26;20.50;55.30
59162;DHT22;44942;48.936;8.260;2024-02-14T15:45:27;20.50;55.30
59162;DHT22;44942;48.936;8.260;2024-02-14T15:50:28;20.40;55.30
59162;DHT22;44942;48.936;8.260;2024-02-14T15:55:28;20.50;55.40
59162;DHT22;44942;48.936;8.260;2024-02-14T16:00:31;20.50;55.40
59162;DHT22;44942;48.936;8.260;2024-02-14T16:05:31;20.50;55.50
59162;DHT22;44942;48.936;8.260;2024-02-14T16:10:32;20.50;55.50
59162;DHT22;44942;48.936;8.260;2024-02-14T16:15:34;20.50;55.60
59162;DHT22;44942;48.936;8.260;2024-02-14T16:20:34;20.50;55.60
59162;DHT22;44942;48.936;8.260;2024-02-14T16:25:35;20.60;55.70
59162;DHT22;44942;48.936;8.260;2024-02-14T16:30:37;20.60;55.90
59162;DHT22;44942;48.936;8.260;2024-02-14T16:35:38;20.60;55.80
59162;DHT22;44942;48.936;8.260;2024-02-14T16:40:38;20.60;55.90
59162;DHT22;44942;48.936;8.260;2024-02-14T16:45:40;20.60;56.00
59162;DHT22;44942;48.936;8.260;2024-02-14T16:50:40;20.60;56.10
59162;DHT22;44942;48.936;8.260;2024-02-14T16:55:42;20.60;56.30
59162;DHT22;44942;48.936;8.260;2024-02-14T17:00:43;20.60;56.50
59162;DHT22;44942;48.936;8.260;2024-02-14T17:05:45;20.60;56.50
59162;DHT22;44942;48.936;8.260;2024-02-14T17:10:46;20.50;56.60
59162;DHT22;44942;48.936;8.260;2024-02-14T17:15:46;20.30;56.50
59162;DHT22;44942;48.936;8.260;2024-02-14T17:20:47;20.40;56.60
59162;DHT22;44942;48.936;8.260;2024-02-14T17:25:49;20.50;56.70
59162;DHT22;44942;48.936;8.260;2024-02-14T17:30:50;20.60;56.90
59162;DHT22;44942;48.936;8.260;2024-02-14T17:35:52;20.60;57.10
59162;DHT22;44942;48.936;8.260;2024-02-14T17:40:52;20.60;57.30
59162;DHT22;44942;48.936;8.260;2024-02-14T17:45:53;20.60;57.50
59162;DHT22;44942;48.936;8.260;2024-02-14T17:50:54;20.60;57.70
59162;DHT22;44942;48.936;8.260;2024-02-14T17:55:55;20.60;57.80
59162;DHT22;44942;48.936;8.260;2024-02-14T18:00:56;20.60;57.80
59162;DHT22;44942;48.936;8.260;2024-02-14T18:05:56;20.60;58.10
59162;DHT22;44942;48.936;8.260;2024-02-14T18:10:57;20.70;58.40
59162;DHT22;44942;48.936;8.260;2024-02-14T18:15:58;20.70;58.50
59162;DHT22;44942;48.936;8.260;2024-02-14T18:20:58;20.70;58.70
59162;DHT22;44942;48.936;8.260;2024-02-14T18:25:59;20.70;58.80
59162;DHT22;44942;48.936;8.260;2024-02-14T18:31:00;20.70;58.90
59162;DHT22;44942;48.936;8.260;2024-02-14T18:36:01;20.70;59.00
59162;DHT22;44942;48.936;8.260;2024-02-14T18:41:04;20.80;59.10
59162;DHT22;44942;48.936;8.260;2024-02-14T18:46:05;20.80;59.20
59162;DHT22;44942;48.936;8.260;2024-02-14T18:51:06;20.80;59.20
59162;DHT22;44942;48.936;8.260;2024-02-14T18:56:06;20.80;59.30
59162;DHT22;44942;48.936;8.260;2024-02-14T19:01:07;20.80;59.40
59162;DHT22;44942;48.936;8.260;2024-02-14T19:06:08;20.80;59.40
59162;DHT22;44942;48.936;8.260;2024-02-14T19:11:09;20.80;59.50
59162;DHT22;44942;48.936;8.260;2024-02-14T19:16:09;20.90;59.60
59162;DHT22;44942;48.936;8.260;2024-02-14T19:21:12;20.90;59.70
59162;DHT22;44942;48.936;8.260;2024-02-14T19:26:12;20.90;59.70
59162;DHT22;44942;48.936;8.260;2024-02-14T19:31:13;20.90;59.70
59162;DHT22;44942;48.936;8.260;2024-02-14T19:36:13;20.90;59.70
59162;DHT22;44942;48.936;8.260;2024-02-14T19:41:14;20.90;59.60
59162;DHT22;44942;48.936;8.260;2024-02-14T19:46:17;20.90;59.80
59162;DHT22;44942;48.936;8.260;2024-02-14T19:51:18;20.90;59.80
59162;DHT22;44942;48.936;8.260;2024-02-14T19:56:19;21.00;59.80
59162;DHT22;44942;48.936;8.260;2024-02-14T20:01:20;21.00;59.90
59162;DHT22;44942;48.936;8.260;2024-02-14T20:06:20;21.00;60.10
59162;DHT22;44942;48.936;8.260;2024-02-14T20:11:21;21.00;60.00
59162;DHT22;44942;48.936;8.260;2024-02-14T20:16:22;21.00;60.20
59162;DHT22;44942;48.936;8.260;2024-02-14T20:21:23;21.10;60.10
59162;DHT22;44942;48.936;8.260;2024-02-14T20:26:32;21.10;60.10
59162;DHT22;44942;48.936;8.260;2024-02-14T20:31:33;21.10;60.30
59162;DHT22;44942;48.936;8.260;2024-02-14T20:36:35;21.10;60.20
59162;DHT22;44942;48.936;8.260;2024-02-14T20:41:37;21.10;60.10
59162;DHT22;44942;48.936;8.260;2024-02-14T20:46:38;21.10;60.10
59162;DHT22;44942;48.936;8.260;2024-02-14T20:51:39;21.10;60.10
59162;DHT22;44942;48.936;8.260;2024-02-14T20:56:39;21.10;60.20
59162;DHT22;44942;48.936;8.260;2024-02-14T21:01:40;21.10;60.20
59162;DHT22;44942;48.936;8.260;2024-02-14T21:06:41;21.20;60.50
59162;DHT22;44942;48.936;8.260;2024-02-14T21:11:41;21.10;60.10
59162;DHT22;44942;48.936;8.260;2024-02-14T21:16:42;21.10;59.80
59162;DHT22;44942;48.936;8.260;2024-02-14T21:21:42;21.00;59.40
59162;DHT22;44942;48.936;8.260;2024-02-14T21:26:43;21.10;59.40
59162;DHT22;44942;48.936;8.260;2024-02-14T21:31:49;21.10;59.40
59162;DHT22;44942;48.936;8.260;2024-02-14T21:36:50;21.10;59.40
59162;DHT22;44942;48.936;8.260;2024-02-14T21:41:51;21.20;59.50
59162;DHT22;44942;48.936;8.260;2024-02-14T21:46:51;21.20;59.70
59162;DHT22;44942;48.936;8.260;2024-02-14T21:51:53;21.20;59.70
59162;DHT22;44942;48.936;8.260;2024-02-14T21:56:54;21.20;59.80
59162;DHT22;44942;48.936;8.260;2024-02-14T22:01:56;21.20;59.80
59162;DHT22;44942;48.936;8.260;2024-02-14T22:06:56;21.20;59.90
59162;DHT22;44942;48.936;8.260;2024-02-14T22:11:57;21.10;59.70
59162;DHT22;44942;48.936;8.260;2024-02-14T22:16:58;21.10;59.50
59162;DHT22;44942;48.936;8.260;2024-02-14T22:21:59;21.10;59.20
59162;DHT22;44942;48.936;8.260;2024-02-14T22:26:59;21.10;59.30
59162;DHT22;44942;48.936;8.260;2024-02-14T22:32:00;21.10;59.40
59162;DHT22;44942;48.936;8.260;2024-02-14T22:37:03;21.20;59.50
59162;DHT22;44942;48.936;8.260;2024-02-14T22:42:04;21.20;59.60
59162;DHT22;44942;48.936;8.260;2024-02-14T22:47:05;21.20;59.60
59162;DHT22;44942;48.936;8.260;2024-02-14T22:52:08;21.20;59.70
59162;DHT22;44942;48.936;8.260;2024-02-14T22:57:10;21.20;59.80
59162;DHT22;44942;48.936;8.260;2024-02-14T23:02:11;21.20;59.90
59162;DHT22;44942;48.936;8.260;2024-02-14T23:07:14;21.20;60.10
59162;DHT22;44942;48.936;8.260;2024-02-14T23:12:14;21.20;59.80
59162;DHT22;44942;48.936;8.260;2024-02-14T23:17:15;21.00;59.50
59162;DHT22;44942;48.936;8.260;2024-02-14T23:22:16;21.10;59.40
59162;DHT22;44942;48.936;8.260;2024-02-14T23:27:17;21.10;59.40
59162;DHT22;44942;48.936;8.260;2024-02-14T23:32:18;21.20;59.40
59162;DHT22;44942;48.936;8.260;2024-02-14T23:37:18;21.20;59.60
59162;DHT22;44942;48.936;8.260;2024-02-14T23:42:19;21.20;59.80
59162;DHT22;44942;48.936;8.260;2024-02-14T23:47:21;21.20;60.00
59162;DHT22;44942;48.936;8.260;2024-02-14T23:52:23;21.20;60.20
59162;DHT22;44942;48.936;8.260;2024-02-14T23:57:24;21.20;60.20
